Weather observations for the past three days for
Falfurrias, Brooks County Airport
Imperial (Metric)
Date Time (cdt) Wind (mph) Vis. (mi.) Weather Sky Cond. Temperature (ºF) Relative Humidity Wind Chill (°F) Heat Index (°F) Pressure Precipitation (in)
Air Dwpt 6 hour altimeter (in) sea level (mb) 1 hr 3 hr 6 hr
Max. Min.
06 08:35 E 6 6.00 Fog/Mist NULL 78.1 75.9 93% 81 29.75 0.0
06 08:15 SE 7 8.00 NULL NULL 78.3 75.7 92% 81 29.75 0.0
06 07:55 E 6 8.00 Mostly Cloudy BKN018 78.4 75.9 92% 82 29.75 0.0
06 07:35 E 6 8.00 Partly Cloudy SCT020 78.1 76.1 94% 81 29.74 0.0
06 07:15 E 6 8.00 Partly Cloudy SCT021 77.5 75.9 95% 79 29.73 0.0
06 06:55 E 5 8.00 A Few Clouds FEW024 77.5 75.7 94% 79 29.72 0.0
06 06:35 E 5 10.00 A Few Clouds FEW016 77.5 75.7 94% 79 29.72 0.0
06 06:15 E 5 10.00 A Few Clouds FEW016 78.3 75 90% 81 29.71 0.0
06 05:55 NE 6 10.00 Fair CLR 78.4 75.2 90% 82 29.71 0.0
06 05:35 E 3 8.00 Fair CLR 78.6 75.2 89% 82 29.7 0.0
06 05:15 E 5 7.00 Fair CLR 78.8 75.2 89% 82 29.71 0.0
06 04:55 SE 5 8.00 Fair CLR 78.8 75.2 89% 82 29.7 0.0
06 04:35 SE 7 8.00 Fair CLR 78.8 75.2 89% 82 29.7 0.0
06 04:15 SE 9 8.00 A Few Clouds FEW015 78.8 75.2 89% 82 29.7 0.0
06 03:55 S 7 9.00 A Few Clouds FEW016 78.8 75.2 89% 82 29.7 0.0
06 03:35 S 8 9.00 A Few Clouds FEW015 78.6 75.2 89% 82 29.69 0.0
06 03:15 S 10 10.00 A Few Clouds FEW016 78.8 75.2 89% 82 29.7 0.0
06 02:55 SE 13 10.00 Partly Cloudy SCT016 SCT024 78.8 75 88% 82 29.7 0.0
06 02:35 SE 9 10.00 Mostly Cloudy BKN016 BKN027 78.8 75 88% 82 29.7 0.0
06 02:15 SE 8 10.00 Mostly Cloudy SCT015 BKN028 79 75 88% 83 29.7 0.0
06 01:55 SE 13 10.00 Mostly Cloudy BKN016 BKN022 BKN029 79 75.2 88% 83 29.7 0.0
06 01:35 SE 12 10.00 Mostly Cloudy BKN016 BKN023 78.8 75.2 89% 82 29.71 0.0
06 00:55 SE 7 10.00 Partly Cloudy SCT029 78.6 75.7 91% 82 29.73 0.0
06 00:35 SE 8 10.00 Mostly Cloudy BKN027 78.6 75.7 91% 82 29.72 0.0
06 00:15 SE 7 10.00 Overcast OVC023 77.9 75.7 93% 80 29.73 0.0
05 23:55 SE 8 10.00 Mostly Cloudy BKN020 77.9 75.6 93% 80 29.73 0.0
05 23:35 SE 8 10.00 Fair CLR 77.7 75.7 94% 80 29.73 0.0
05 23:15 SE 9 10.00 Fair CLR 77.9 75.7 93% 80 29.73 0.0
05 22:55 SE 9 10.00 Fair CLR 78.1 75.6 92% 81 29.73 0.0
05 22:35 SE 8 10.00 Fair CLR 78.4 75.7 91% 82 29.72 0.0
05 22:15 SE 13 10.00 Fair CLR 78.8 75.6 90% 82 29.71 0.0
05 21:55 SE 10 10.00 Fair CLR 79.2 75.6 89% 83 29.71 0.0
05 21:35 SE 10 10.00 Fair CLR 79.7 75.6 87% 84 29.7 0.0
05 21:15 SE 10 G 21 10.00 Fair CLR 80.2 75.4 85% 86 29.69 0.0
05 20:55 SE 10 10.00 Fair CLR 81 75.4 83% 87 29.68 0.0
05 20:35 SE 13 G 21 10.00 Fair CLR 81.9 75.6 81% 89 29.67 0.0
05 20:15 SE 12 10.00 Fair CLR 82.8 75.7 79% 91 29.66 0.0
05 19:55 Calm 10.00 Fair CLR 84 75.7 76% 93 29.65 0.0
05 19:35 SE 10 G 21 9.00 Fair CLR 85.1 75.9 74% 95 29.65 0.0
05 19:15 SE 13 9.00 Fair CLR 86.5 75.9 71% 97 29.64 0.0
05 18:55 SE 14 G 22 10.00 A Few Clouds FEW047 88.5 75.9 66% 100 29.63 0.0
05 18:35 SE 14 10.00 A Few Clouds FEW049 90.1 75.9 63% 102 29.63 0.0
05 18:15 SE 10 10.00 Fair CLR 91.6 76.1 61% 104 29.62 0.0
05 17:55 SE 13 10.00 Fair CLR 93.2 72.7 51% 102 29.62 0.0
05 17:35 SE 13 G 22 10.00 Fair CLR 93.7 72 49% 102 29.62 0.0
05 17:15 S 12 G 20 10.00 Fair CLR 94.1 72 49% 102 29.63 0.0
05 16:55 SE 17 G 22 10.00 Fair CLR 93.6 72.9 51% 103 29.63 0.0
05 16:35 S 14 G 23 10.00 Fair CLR 94.1 72.5 50% 103 29.64 0.0
05 16:15 S 14 10.00 Fair CLR 94.3 72.5 49% 103 29.65 0.0
05 15:55 S 14 G 20 10.00 Fair CLR 94.3 72.3 49% 103 29.66 0.0
05 15:35 S 12 G 22 10.00 Fair CLR 94.1 72.5 50% 103 29.67 0.0
05 15:15 S 13 10.00 A Few Clouds FEW049 93.6 72.7 51% 102 29.68 0.0
05 14:55 S 14 G 18 10.00 Partly Cloudy SCT049 93.2 72.1 50% 101 29.68 0.0
05 14:35 SE 14 G 21 10.00 A Few Clouds FEW049 92.7 72.3 52% 101 29.69 0.0
05 14:15 SE 16 G 20 10.00 A Few Clouds FEW046 92.8 72.3 51% 101 29.7 0.0
05 13:55 SE 14 G 22 10.00 Mostly Cloudy SCT045 SCT300 SCT340 BKN370 91.6 73 55% 100 29.7 0.0
05 13:35 S 15 G 25 10.00 Partly Cloudy FEW043 SCT340 SCT370 91.6 72.3 53% 100 29.71 0.0
05 13:15 S 17 G 24 10.00 Partly Cloudy SCT041 90.3 73 57% 99 29.72 0.0
05 12:55 S 16 10.00 Partly Cloudy SCT039 90.1 72.9 57% 98 29.72 0.0
05 12:35 S 15 G 24 10.00 A Few Clouds FEW037 89.6 73.2 59% 98 29.73 0.0
05 12:15 S 14 G 21 10.00 A Few Clouds FEW035 88.7 73.2 60% 97 29.74 0.0
05 11:55 SE 16 10.00 Partly Cloudy SCT032 88 73.4 62% 96 29.74 0.0
05 11:35 S 15 G 22 10.00 A Few Clouds FEW031 87.1 73.6 64% 95 29.75 0.0
05 11:15 S 12 G 21 10.00 A Few Clouds FEW030 86.4 73.8 66% 94 29.75 0.0
05 10:55 S 15 10.00 A Few Clouds FEW330 85.1 73.6 69% 92 29.75 0.0
05 10:35 S 17 10.00 A Few Clouds FEW023 84.4 73.8 71% 91 29.75 0.0
05 10:15 S 18 10.00 A Few Clouds FEW022 83.3 73.8 73% 90 29.75 0.0
05 09:55 S 16 10.00 Mostly Cloudy BKN020 81.5 73.4 77% 87 29.75 0.0
05 09:35 S 15 G 23 10.00 Mostly Cloudy BKN019 80.4 73.6 80% 85 29.75 0.0
05 09:15 S 14 10.00 Overcast OVC017 79.7 73.4 81% 84 29.76 0.0
05 08:55 S 17 G 21 10.00 Mostly Cloudy BKN016 79 73.6 84% 82 29.76 0.0
05 08:35 S 12 10.00 Partly Cloudy SCT020 77.9 74.1 88% 80 29.76 0.0
05 08:15 S 10 9.00 Overcast OVC020 76.6 73.8 91% 77 29.75 0.0
05 07:55 S 8 9.00 Overcast OVC019 75.2 73.2 94% 74 29.75 0.0
05 07:35 S 7 9.00 Overcast OVC020 74.3 72.7 95% 29.75 0.0
05 07:15 S 7 10.00 Overcast OVC021 73.9 72.3 95% 29.75 0.0
05 06:55 SE 6 10.00 Overcast OVC019 73.8 72.3 95% 29.74 0.0
05 06:35 SE 6 10.00 Overcast OVC019 73.8 72 94% 29.74 0.0
05 06:15 SE 7 10.00 Overcast OVC019 73.6 71.8 94% 29.74 0.0
05 05:55 SE 8 10.00 Overcast OVC020 73.4 71.6 94% 29.74 0.0
05 05:35 SE 7 10.00 Overcast OVC020 73.4 71.4 94% 29.74 0.0
05 05:15 S 8 10.00 Overcast OVC018 73.2 71.4 94% 29.74 0.0
05 04:55 S 9 10.00 Overcast OVC018 72.9 71.1 94% 29.74 0.0
05 04:35 S 9 10.00 Overcast OVC018 72.7 70.9 94% 29.75 0.0
05 04:15 S 9 10.00 Overcast OVC017 72.5 70.5 94% 29.75 0.0
05 03:55 S 8 10.00 Overcast OVC017 72.3 70.2 93% 29.76 0.0
05 03:35 S 7 10.00 Overcast BKN016 OVC022 72.5 70 92% 29.77 0.0
05 03:15 S 7 10.00 Overcast OVC022 72.1 70.3 94% 29.77 0.0
05 02:55 SE 7 10.00 Overcast OVC021 71.8 70 94% 29.77 0.0
05 02:35 SE 6 10.00 Overcast OVC021 71.6 69.8 94% 29.79 0.0
05 02:15 SE 5 10.00 Mostly Cloudy BKN022 71.4 69.3 93% 29.79 0.0
05 01:55 SE 5 10.00 A Few Clouds FEW025 71.4 68.9 92% 29.8 0.0
05 01:35 SE 6 10.00 Partly Cloudy SCT026 71.8 69.3 92% 29.81 0.0
05 01:15 SE 6 10.00 Fair CLR 71.8 69.1 91% 29.81 0.0
05 00:55 SE 7 10.00 Fair CLR 72 69.3 91% 29.82 0.0
05 00:35 SE 7 10.00 Fair CLR 72.1 69.1 90% 29.82 0.0
05 00:15 SE 8 10.00 A Few Clouds FEW028 72.5 69.1 89% 29.83 0.0
04 23:55 SE 9 10.00 A Few Clouds FEW028 72.9 69.1 88% 29.84 0.0
04 23:35 SE 8 10.00 Fair CLR 73 69.3 88% 29.83 0.0
04 23:15 S 10 10.00 Fair CLR 73.4 69.3 87% 29.83 0.0
04 22:55 SE 10 10.00 Fair CLR 73.6 69.1 86% 29.83 0.0
04 22:35 SE 8 10.00 Fair CLR 73.9 69.1 85% 29.83 0.0
04 22:15 SE 8 10.00 Fair CLR 74.3 69.1 84% 29.83 0.0
04 21:55 SE 10 10.00 Fair CLR 74.8 69.3 83% 29.82 0.0
04 21:35 SE 10 10.00 Fair CLR 75.2 69.3 82% 76 29.82 0.0
04 21:15 SE 10 10.00 Fair CLR 76.1 69.3 79% 77 29.81 0.0
04 20:55 SE 10 10.00 Fair CLR 76.6 69.3 78% 78 29.8 0.0
04 20:35 SE 12 10.00 Fair CLR 77.5 69.1 75% 79 29.8 0.0
04 20:15 SE 9 10.00 Fair CLR 78.4 69.1 73% 81 29.79 0.0
04 19:55 SE 16 10.00 Fair CLR 79.3 69.3 71% 82 29.79 0.0
04 19:35 SE 16 G 21 10.00 A Few Clouds FEW039 80.4 69.4 69% 84 29.8 0.0
04 19:15 Calm 10.00 A Few Clouds FEW039 83.1 69.6 64% 87 29.8 0.0
04 18:55 SE 12 10.00 A Few Clouds FEW050 84.4 68.5 59% 88 29.8 0.0
04 18:35 S 14 10.00 Fair CLR 84 68.4 59% 87 29.8 0.0
04 18:15 S 10 10.00 A Few Clouds FEW055 83.8 68.2 59% 87 29.8 0.0
04 17:55 S 12 10.00 Mostly Cloudy BKN055 83.7 67.6 59% 87 29.81 0.0
04 17:35 SE 14 10.00 Partly Cloudy SCT055 84.7 68.4 58% 88 29.81 0.0
04 17:15 S 14 10.00 Partly Cloudy SCT050 85.8 68.2 56% 89 29.82 0.0
04 16:55 SE 12 10.00 Overcast OVC049 86 68.2 55% 90 29.82 0.0
04 16:35 SE 13 10.00 Overcast SCT044 OVC055 85.3 68 56% 89 29.82 0.0
04 16:15 SE 10 10.00 Overcast FEW045 OVC055 85.5 67.6 55% 89 29.83 0.0
04 15:55 S 14 10.00 Mostly Cloudy BKN055 85.3 67.6 56% 88 29.84 0.0
04 15:35 S 14 10.00 Mostly Cloudy FEW042 BKN055 85.3 67.5 55% 88 29.85 0.0
04 15:15 S 9 10.00 Overcast FEW042 OVC055 84.2 67.3 57% 87 29.86 0.0
04 14:55 S 10 10.00 Overcast FEW042 OVC055 83.8 67.5 58% 87 29.87 0.0
04 14:35 S 12 10.00 Overcast BKN041 OVC055 84.4 67.5 57% 87 29.87 0.0
04 14:15 S 12 10.00 Overcast SCT042 OVC055 84.4 67.5 57% 87 29.88 0.0
04 13:55 S 10 10.00 Overcast SCT042 OVC050 83.7 67.5 58% 87 29.89 0.0
04 13:35 S 10 10.00 Overcast BKN042 OVC050 82 67.1 61% 85 29.89 0.0
04 13:15 S 9 10.00 Overcast BKN042 OVC050 81.7 66.7 61% 84 29.9 0.0
04 12:55 S 13 10.00 Overcast BKN040 OVC049 81.1 66.7 62% 84 29.91 0.0
04 12:35 S 10 10.00 Overcast BKN039 OVC049 81 67.1 63% 83 29.91 0.0
04 12:15 S 14 10.00 Overcast BKN041 OVC048 80.6 66.7 63% 83 29.92 0.0
04 11:55 S 15 10.00 Overcast BKN040 OVC047 80.2 66.6 63% 82 29.93 0.0
04 11:35 S 13 10.00 Overcast OVC040 80.4 67.3 64% 83 29.93 0.0
04 11:15 S 15 10.00 Overcast SCT035 OVC043 80.8 66.9 63% 83 29.93 0.0
04 10:55 S 13 10.00 Mostly Cloudy BKN032 79.7 66.7 65% 82 29.93 0.0
04 10:35 S 15 10.00 Mostly Cloudy BKN028 BKN033 80.1 67.5 66% 83 29.93 0.0
04 10:15 S 18 10.00 Mostly Cloudy BKN027 79.2 67.5 68% 81 29.94 0.0
04 09:55 SE 16 G 25 10.00 Partly Cloudy SCT025 77.9 67.5 70% 80 29.94 0.0
04 09:35 SE 15 G 23 10.00 Partly Cloudy SCT025 77 67.6 73% 79 29.95 0.0
04 09:15 S 12 G 17 10.00 Fair CLR 75.6 67.6 77% 77 29.95 0.0
04 08:55 SE 10 10.00 Fair CLR 73.2 67.1 81% 29.95 0.0
04 08:35 SE 12 10.00 Fair CLR 70.2 66.7 89% 29.95 0.0
04 08:15 SE 7 10.00 Fair CLR 67.5 66 95% 29.95 0.0
04 07:55 SE 6 9.00 Fair CLR 65.3 64.6 98% 29.94 0.0
04 07:35 SE 5 10.00 Fair CLR 63 62.4 98% 29.95 0.0
04 07:15 SE 5 8.00 Fair CLR 61.3 60.4 97% 29.95 0.0
04 06:55 E 3 8.00 Fair CLR 60.6 59.7 97% 29.95 0.0
04 06:35 E 3 10.00 Fair CLR 60.8 60.3 98% 29.95 0.0
04 06:15 Calm 8.00 Fair CLR 60.8 60.4 99% 29.96 0.0
04 05:55 E 5 9.00 Fair CLR 60.6 60.4 99% 29.95 0.0
04 05:35 NE 5 10.00 Fair CLR 60.1 59.5 98% 29.95 0.0
04 05:15 NE 5 9.00 Fair CLR 60.1 59.4 97% 29.96 0.0
04 04:55 E 3 10.00 Fair CLR 59.7 58.8 97% 29.95 0.0
04 04:35 Calm 10.00 Fair CLR 59.9 59 97% 29.96 0.0
04 04:15 E 3 10.00 Fair CLR 60.1 58.6 95% 29.96 0.0
04 03:55 SE 3 10.00 Fair CLR 60.3 59.2 96% 29.97 0.0
04 03:35 Calm 10.00 Fair CLR 60.4 59 95% 29.97 0.0
04 03:15 Calm 10.00 Fair CLR 61 58.6 92% 29.98 0.0
04 02:55 Calm 10.00 Fair CLR 62.2 59.4 90% 29.98 0.0
04 02:35 Calm 8.00 Fair CLR 61.9 59.2 91% 29.99 0.0
04 02:15 Calm 10.00 Fair CLR 63.3 59.2 86% 30.01 0.0
04 01:55 Calm 10.00 Fair CLR 63.5 59.2 86% 30.02 0.0
04 01:35 Calm 10.00 Fair CLR 63.3 59 86% 30.02 0.0
04 01:15 SE 5 10.00 Fair CLR 63.7 59.2 85% 30.01 0.0
04 00:55 SE 5 10.00 Fair CLR 63.9 58.8 84% 30.02 0.0
04 00:35 SE 5 10.00 Fair CLR 64 58.6 83% 30.03 0.0
04 00:15 SE 5 10.00 Fair CLR 64.2 58.6 82% 30.03 0.0
03 23:55 SE 3 10.00 Fair CLR 64.6 58.6 81% 30.04 0.0
03 23:35 SE 5 10.00 Fair CLR 65.3 58.6 79% 30.06 0.0
03 23:15 SE 5 10.00 Fair CLR 65.3 58.6 79% 30.06 0.0
03 22:55 SE 5 10.00 Fair CLR 65.3 58.3 78% 30.06 0.0
03 22:35 E 5 10.00 Fair CLR 66.4 58.1 75% 30.06 0.0
03 22:15 E 5 10.00 Fair CLR 67.1 58.1 73% 30.06 0.0
03 21:55 E 3 10.00 Fair CLR 68 57.9 70% 30.06 0.0
03 21:35 E 6 10.00 Fair CLR 68.2 58.1 70% 30.05 0.0
03 21:15 E 5 10.00 Fair CLR 69.3 58.1 68% 30.05 0.0
03 20:55 SE 6 10.00 Fair CLR 70.2 58.3 66% 30.05 0.0
03 20:35 E 8 10.00 Fair CLR 71.4 58.1 63% 30.04 0.0
03 20:15 SE 8 10.00 Fair CLR 72.3 58.1 61% 30.03 0.0
03 19:55 E 8 9.00 Fair CLR 73.2 58.5 60% 30.03 0.0
03 19:35 E 8 10.00 A Few Clouds FEW055 74.5 59 59% 30.03 0.0
03 19:15 SE 9 10.00 Mostly Cloudy BKN055 75.9 58.8 56% 78 30.04 0.0
03 18:55 SE 14 9.00 Mostly Cloudy BKN055 76.6 58.8 54% 78 30.03 0.0
03 18:35 E 8 9.00 Mostly Cloudy BKN055 77.4 58.6 53% 79 30.02 0.0
03 18:15 Calm 10.00 Mostly Cloudy BKN055 77.2 58.8 53% 79 30.03 0.0
03 17:55 E 8 10.00 Mostly Cloudy BKN060 78.3 58.3 50% 79 30.03 0.0
03 17:35 Calm 10.00 Mostly Cloudy BKN060 79.2 57.2 47% 80 30.03 0.0
03 17:15 E 12 10.00 Mostly Cloudy BKN065 80.6 57.4 45% 81 30.03 0.0
03 16:55 E 14 10.00 Mostly Cloudy BKN065 79.9 56.5 45% 80 30.05 0.0
03 16:35 E 9 10.00 Partly Cloudy SCT065 80.8 57.7 45% 81 30.06 0.0
03 16:15 E 10 10.00 Mostly Cloudy BKN065 81.7 56.8 43% 81 30.06 0.0
03 15:55 E 12 G 20 10.00 Partly Cloudy SCT060 82.4 57.9 43% 82 30.07 0.0
03 15:35 E 13 10.00 Mostly Cloudy BKN070 82.2 56.8 42% 82 30.08 0.0
03 15:15 SE 10 10.00 Mostly Cloudy BKN070 81.1 55.6 42% 81 30.09 0.0
03 14:55 E 10 10.00 Mostly Cloudy BKN065 81.5 55.4 41% 81 30.1 0.0
03 14:35 E 5 10.00 Mostly Cloudy BKN060 80.8 54.5 40% 81 30.11 0.0
03 13:55 Vrbl 7 10.00 A Few Clouds FEW060 82.6 54.7 38% 82 30.13 0.0
03 13:35 E 9 10.00 A Few Clouds FEW310 81.9 53.6 38% 81 30.14 0.0
03 13:15 NE 9 10.00 A Few Clouds FEW320 80.8 55.2 42% 81 30.15 0.0
03 12:55 Vrbl 5 10.00 A Few Clouds FEW055 80.8 54.9 41% 81 30.16 0.0
03 12:35 SE 8 10.00 Partly Cloudy SCT050 80.2 56.1 44% 80 30.17 0.0
03 12:15 E 9 10.00 Partly Cloudy SCT050 79.5 56.3 45% 80 30.18 0.0
03 11:55 E 7 10.00 A Few Clouds FEW048 80.4 55.2 42% 80 30.18 0.0
03 11:35 E 5 10.00 A Few Clouds FEW048 79.2 55.9 45% 80 30.19 0.0
03 11:15 Vrbl 6 10.00 Fair CLR 79.2 56.1 45% 80 30.2 0.0
03 10:55 NE 5 10.00 A Few Clouds FEW310 78.8 57.7 49% 80 30.2 0.0
03 10:35 Vrbl 5 10.00 Fair CLR 77.2 57.4 51% 79 30.2 0.0
03 10:15 N 5 10.00 Fair CLR 75.6 57.6 54% 78 30.2 0.0
03 09:55 N 5 10.00 Fair CLR 73.9 57.6 57% 30.2 0.0
03 09:35 N 7 10.00 Fair CLR 72.7 58.3 61% 30.19 0.0
03 09:15 N 5 10.00 Fair CLR 70.2 58.8 67% 30.18 0.0
03 08:55 N 5 10.00 Fair CLR 68.2 58.8 72% 30.18 0.0
Date Time (cdt) Wind (mph) Vis. (mi.) Weather Sky Cond. Air Dwpt Max. Min. Relative Humidity Wind Chill (°F) Heat Index (°F) altimeter (in) sea level (mb) 1 hr 3 hr 6 hr
6 hour
Temperature (ºF) Pressure Precipitation (in)